Time;durP1;ratioP1;P1;durP2;ratioP2;P2;SDS_P1;SDS_P2;PMS_P1;PMS_P2;Temp;Humidity;BMP_temperature;BMP_pressure;BME280_temperature;BME280_humidity;BME280_pressure;Samples;Min_cycle;Max_cycle;Signal;HPM_P1;HPM_P2
2023/12/13 00:02:25;;;;;;;4.00;2.33;;;9.70;99.90;;;;;;4991845;28;20463;-77
2023/12/13 00:04:51;;;;;;;2.30;1.77;;;9.70;99.90;;;;;;4993676;28;20252;-78
2023/12/13 00:07:17;;;;;;;2.73;2.17;;;9.70;99.90;;;;;;4990122;28;20199;-77
2023/12/13 00:09:42;;;;;;;1.80;1.60;;;9.70;99.90;;;;;;5006131;28;20219;-77
2023/12/13 00:12:08;;;;;;;1.60;1.50;;;9.70;99.90;;;;;;4992567;28;20661;-78
2023/12/13 00:14:34;;;;;;;4.77;1.93;;;9.70;99.90;;;;;;4990550;28;20266;-77
2023/12/13 00:16:59;;;;;;;5.00;1.77;;;9.70;99.90;;;;;;4991341;28;20271;-78
2023/12/13 00:19:25;;;;;;;2.30;1.40;;;9.70;99.90;;;;;;4990667;28;20187;-77
2023/12/13 00:21:51;;;;;;;1.73;1.50;;;9.60;99.90;;;;;;4992131;28;20884;-78
2023/12/13 00:24:16;;;;;;;4.57;1.80;;;9.60;99.90;;;;;;4989553;28;20194;-76
2023/12/13 00:26:42;;;;;;;4.33;1.70;;;9.70;99.90;;;;;;4991186;28;20229;-77
2023/12/13 00:29:08;;;;;;;2.40;1.60;;;9.60;99.90;;;;;;4990304;28;20287;-77
2023/12/13 00:31:34;;;;;;;4.77;1.80;;;9.60;99.90;;;;;;4990274;28;20607;-77
2023/12/13 00:34:00;;;;;;;6.53;2.17;;;9.60;99.90;;;;;;4991176;28;20423;-78
2023/12/13 00:36:26;;;;;;;3.37;1.73;;;9.60;99.90;;;;;;4988642;28;20434;-77
2023/12/13 00:38:51;;;;;;;4.00;1.93;;;9.60;99.90;;;;;;4991146;28;20258;-78
2023/12/13 00:41:17;;;;;;;5.13;1.73;;;9.50;99.90;;;;;;4991203;28;20190;-77
2023/12/13 00:43:43;;;;;;;6.43;2.40;;;9.50;99.90;;;;;;4990156;28;20191;-76
2023/12/13 00:46:19;;;;;;;2.20;1.40;;;9.50;99.90;;;;;;4990779;28;20194;-77
2023/12/13 00:48:49;;;;;;;2.93;1.33;;;9.50;99.90;;;;;;4989227;28;20287;-78
2023/12/13 00:51:16;;;;;;;2.70;2.00;;;9.50;99.90;;;;;;4990331;28;20419;-77
2023/12/13 00:53:42;;;;;;;2.50;1.20;;;9.50;99.90;;;;;;4989476;28;20483;-77
2023/12/13 00:56:08;;;;;;;3.63;1.40;;;9.50;99.90;;;;;;4974859;28;20518;-77
2023/12/13 00:58:34;;;;;;;3.80;1.53;;;9.50;99.90;;;;;;4988884;28;20219;-78
2023/12/13 01:01:00;;;;;;;2.13;1.30;;;9.50;99.90;;;;;;4991194;28;20429;-77
2023/12/13 01:03:26;;;;;;;2.20;1.50;;;9.50;99.90;;;;;;4987707;28;20191;-76
2023/12/13 01:05:52;;;;;;;2.17;1.33;;;9.50;99.90;;;;;;4990071;28;20514;-77
2023/12/13 01:08:17;;;;;;;2.47;1.30;;;9.50;99.90;;;;;;4989772;28;20218;-77
2023/12/13 01:10:44;;;;;;;4.90;1.70;;;9.40;99.90;;;;;;4990586;28;20176;-77
2023/12/13 01:13:09;;;;;;;1.60;1.07;;;9.40;99.90;;;;;;4990528;28;20975;-79
2023/12/13 01:15:35;;;;;;;3.23;1.37;;;9.50;99.90;;;;;;4988002;28;20435;-77
2023/12/13 01:18:01;;;;;;;3.20;1.60;;;9.40;99.90;;;;;;4990851;28;20223;-78
2023/12/13 01:20:26;;;;;;;4.10;1.53;;;9.40;99.90;;;;;;4988382;28;20435;-77
2023/12/13 01:22:52;;;;;;;2.80;1.67;;;9.40;99.90;;;;;;4987642;28;20240;-78
2023/12/13 01:25:18;;;;;;;1.53;1.40;;;9.40;99.90;;;;;;4990000;28;20196;-77
2023/12/13 01:27:43;;;;;;;2.30;1.50;;;9.40;99.90;;;;;;4991826;28;20195;-78
2023/12/13 01:30:09;;;;;;;2.13;1.20;;;9.30;99.90;;;;;;4992382;28;20182;-77
2023/12/13 01:32:35;;;;;;;2.13;1.33;;;9.40;99.90;;;;;;4991849;28;20617;-78
2023/12/13 01:35:01;;;;;;;6.43;1.20;;;9.30;99.90;;;;;;4992795;28;20444;-78
2023/12/13 01:37:27;;;;;;;4.37;1.30;;;9.40;99.90;;;;;;4994870;28;20677;-77
2023/12/13 01:39:56;;;;;;;5.03;1.93;;;9.40;99.90;;;;;;4996915;28;20184;-79
2023/12/13 01:42:23;;;;;;;4.57;1.40;;;9.30;99.90;;;;;;4994585;28;20506;-77
2023/12/13 01:44:49;;;;;;;3.20;1.60;;;9.40;99.90;;;;;;4994803;28;21221;-77
2023/12/13 01:47:15;;;;;;;3.27;1.20;;;9.40;99.90;;;;;;4995070;28;20469;-76
2023/12/13 01:49:40;;;;;;;1.40;1.30;;;9.40;99.90;;;;;;4995865;28;20441;-77
2023/12/13 01:52:07;;;;;;;4.07;1.63;;;9.30;99.90;;;;;;4995844;28;20446;-76
2023/12/13 01:54:35;;;;;;;2.77;1.30;;;9.30;99.90;;;;;;4995113;28;20311;-77
2023/12/13 01:57:02;;;;;;;1.73;1.30;;;9.30;99.90;;;;;;4995484;28;20426;-77
2023/12/13 01:59:28;;;;;;;1.67;1.40;;;9.30;99.90;;;;;;4994909;28;20434;-77
2023/12/13 02:01:57;;;;;;;4.13;1.63;;;9.40;99.90;;;;;;4994746;28;20963;-78
2023/12/13 02:04:25;;;;;;;3.70;1.40;;;9.40;99.90;;;;;;4997537;28;20442;-78
2023/12/13 02:06:51;;;;;;;4.87;1.97;;;9.40;99.90;;;;;;4995097;28;20863;-77
2023/12/13 02:09:17;;;;;;;4.57;1.20;;;9.40;99.90;;;;;;4994762;28;20786;-77
2023/12/13 02:11:43;;;;;;;2.80;1.40;;;9.40;99.90;;;;;;4994417;28;20802;-77
2023/12/13 02:14:09;;;;;;;3.73;1.43;;;9.30;99.90;;;;;;4993556;28;20434;-77
2023/12/13 02:16:36;;;;;;;3.90;1.70;;;9.30;99.90;;;;;;4994522;28;21427;-77
2023/12/13 02:19:02;;;;;;;4.13;1.60;;;9.30;99.90;;;;;;4995376;28;20981;-78
2023/12/13 02:21:29;;;;;;;2.63;1.53;;;9.30;99.90;;;;;;4994183;28;20424;-77
2023/12/13 02:23:58;;;;;;;2.47;1.63;;;9.30;99.90;;;;;;5096317;27;20978;-77
2023/12/13 02:26:24;;;;;;;2.47;2.27;;;9.30;99.90;;;;;;4991988;28;20430;-77
2023/12/13 02:28:50;;;;;;;2.63;1.40;;;9.30;99.90;;;;;;4995180;28;20489;-77
2023/12/13 02:31:16;;;;;;;1.63;1.40;;;9.30;99.90;;;;;;4994706;28;20223;-77
2023/12/13 02:33:43;;;;;;;3.47;1.60;;;9.40;99.90;;;;;;4993787;28;20884;-77
2023/12/13 02:36:09;;;;;;;3.10;1.60;;;9.30;99.90;;;;;;4993215;28;21027;-77
2023/12/13 02:38:35;;;;;;;3.10;1.47;;;9.30;99.90;;;;;;4993646;28;20478;-77
2023/12/13 02:41:01;;;;;;;4.20;1.63;;;9.40;99.90;;;;;;4995254;28;20994;-76
2023/12/13 02:43:28;;;;;;;3.43;2.07;;;9.40;99.90;;;;;;4992954;28;20427;-77
2023/12/13 02:45:53;;;;;;;2.07;1.40;;;9.40;99.90;;;;;;4994243;28;20584;-77
2023/12/13 02:48:19;;;;;;;2.83;1.33;;;9.40;99.90;;;;;;4993370;28;20430;-77
2023/12/13 02:50:45;;;;;;;4.33;1.80;;;9.30;99.90;;;;;;4994627;28;20443;-78
2023/12/13 02:53:12;;;;;;;4.00;1.43;;;9.30;99.90;;;;;;4994381;28;20191;-77
2023/12/13 02:55:38;;;;;;;4.50;1.93;;;9.30;99.90;;;;;;4993775;28;20466;-78
2023/12/13 02:58:05;;;;;;;2.50;1.60;;;9.30;99.90;;;;;;4976307;28;21900;-76
2023/12/13 03:00:31;;;;;;;4.13;1.70;;;9.30;99.90;;;;;;4993572;28;20191;-77
2023/12/13 03:02:57;;;;;;;5.43;1.70;;;9.40;99.90;;;;;;4994619;28;20857;-80
2023/12/13 03:05:23;;;;;;;2.00;1.60;;;9.40;99.90;;;;;;4993302;28;20479;-78
2023/12/13 03:07:49;;;;;;;7.40;1.60;;;9.40;99.90;;;;;;4993551;28;20430;-77
2023/12/13 03:10:15;;;;;;;2.93;1.60;;;9.40;99.90;;;;;;4992656;28;20439;-77
2023/12/13 03:12:41;;;;;;;3.77;1.80;;;9.40;99.90;;;;;;4994005;28;20192;-78
2023/12/13 03:15:08;;;;;;;2.60;1.37;;;9.40;99.90;;;;;;4993836;28;20933;-78
2023/12/13 03:17:33;;;;;;;2.53;1.80;;;9.40;99.90;;;;;;4994115;28;20473;-78
2023/12/13 03:19:59;;;;;;;4.00;1.40;;;9.40;99.90;;;;;;4994163;28;20479;-78
2023/12/13 03:22:25;;;;;;;3.93;2.40;;;9.40;99.90;;;;;;4993203;28;20187;-78
2023/12/13 03:24:55;;;;;;;3.87;1.23;;;9.40;99.90;;;;;;4994048;28;20200;-77
2023/12/13 03:27:21;;;;;;;4.57;1.60;;;9.40;99.90;;;;;;4992918;28;20272;-76
2023/12/13 03:29:46;;;;;;;2.03;1.50;;;9.40;99.90;;;;;;4994201;28;20518;-79
2023/12/13 03:32:12;;;;;;;3.47;1.87;;;9.50;99.90;;;;;;4993385;28;20258;-77
2023/12/13 03:34:38;;;;;;;4.47;1.87;;;9.40;99.90;;;;;;4993720;28;20191;-78
2023/12/13 03:37:06;;;;;;;4.87;1.60;;;9.40;99.90;;;;;;4994096;28;20215;-78
2023/12/13 03:39:32;;;;;;;3.70;1.50;;;9.40;99.90;;;;;;4993468;28;20187;-78
2023/12/13 03:41:58;;;;;;;2.90;1.40;;;9.40;99.90;;;;;;4992400;28;20435;-77
2023/12/13 03:44:24;;;;;;;2.60;1.53;;;9.40;99.90;;;;;;4993795;28;20438;-77
2023/12/13 03:46:49;;;;;;;6.50;1.70;;;9.40;99.90;;;;;;4993206;28;20195;-77
2023/12/13 03:49:16;;;;;;;3.53;1.53;;;9.40;99.90;;;;;;4992463;28;20198;-77
2023/12/13 03:51:46;;;;;;;6.57;1.60;;;9.40;99.90;;;;;;4993820;28;20196;-77
2023/12/13 03:54:12;;;;;;;2.70;1.33;;;9.40;99.90;;;;;;4992263;28;20466;-77
2023/12/13 03:56:38;;;;;;;5.03;1.30;;;9.40;99.90;;;;;;4993040;28;21068;-77
2023/12/13 03:59:04;;;;;;;1.90;1.30;;;9.40;99.90;;;;;;4991755;28;20469;-78
2023/12/13 04:01:29;;;;;;;5.97;1.53;;;9.40;99.90;;;;;;4993455;28;20745;-77
2023/12/13 04:03:55;;;;;;;3.10;1.50;;;9.40;99.90;;;;;;5008843;28;20188;-76
2023/12/13 04:06:21;;;;;;;3.43;1.33;;;9.50;99.90;;;;;;4959298;28;20790;-78
2023/12/13 04:08:46;;;;;;;4.33;1.93;;;9.40;99.90;;;;;;4992364;28;20188;-78
2023/12/13 04:11:12;;;;;;;4.37;1.67;;;9.40;99.90;;;;;;4993256;28;20656;-78
2023/12/13 04:13:38;;;;;;;3.47;1.70;;;9.40;99.90;;;;;;4993551;28;20188;-77
2023/12/13 04:16:04;;;;;;;3.90;1.50;;;9.40;99.90;;;;;;4991935;28;20189;-76
2023/12/13 04:18:29;;;;;;;4.80;1.87;;;9.40;99.90;;;;;;4993225;28;20224;-78
2023/12/13 04:20:55;;;;;;;5.77;2.40;;;9.40;99.90;;;;;;4992278;28;20429;-78
2023/12/13 04:23:21;;;;;;;4.30;1.40;;;9.40;99.90;;;;;;4992996;28;20215;-76
2023/12/13 04:25:47;;;;;;;1.53;1.30;;;9.40;99.90;;;;;;4991681;28;20260;-77
2023/12/13 04:28:13;;;;;;;3.03;1.77;;;9.50;99.90;;;;;;4992878;28;20455;-77
2023/12/13 04:30:39;;;;;;;6.40;3.10;;;9.40;99.90;;;;;;4993329;28;20194;-78
2023/12/13 04:33:04;;;;;;;2.63;1.50;;;9.50;99.90;;;;;;4992948;28;20442;-76
2023/12/13 04:35:32;;;;;;;5.63;2.20;;;9.40;99.90;;;;;;4992872;28;20206;-77
2023/12/13 04:37:58;;;;;;;4.60;1.90;;;9.40;99.90;;;;;;4992493;28;20218;-77
2023/12/13 04:40:24;;;;;;;6.47;2.00;;;9.50;99.90;;;;;;4991535;28;20698;-77
2023/12/13 04:42:50;;;;;;;7.10;1.87;;;9.40;99.90;;;;;;4993140;28;20441;-77
2023/12/13 04:45:16;;;;;;;2.67;1.50;;;9.40;99.90;;;;;;4991291;28;20509;-77
2023/12/13 04:47:41;;;;;;;4.30;2.10;;;9.40;99.90;;;;;;4991859;28;20188;-77
2023/12/13 04:50:08;;;;;;;5.80;2.00;;;9.40;99.90;;;;;;4992529;28;20444;-77
2023/12/13 04:52:33;;;;;;;4.47;1.93;;;9.50;99.90;;;;;;4993027;28;20305;-77
2023/12/13 04:54:59;;;;;;;3.43;1.90;;;9.40;99.90;;;;;;4992787;28;20548;-77
2023/12/13 04:57:25;;;;;;;3.57;1.97;;;9.40;99.90;;;;;;4992745;28;20222;-77
2023/12/13 04:59:51;;;;;;;7.07;2.20;;;9.40;99.90;;;;;;4992251;28;20195;-77
2023/12/13 05:02:16;;;;;;;9.30;2.10;;;9.40;99.90;;;;;;4993235;28;20215;-76
2023/12/13 05:04:42;;;;;;;3.87;2.40;;;9.40;99.90;;;;;;4992804;28;20660;-77
2023/12/13 05:07:08;;;;;;;3.47;1.97;;;9.40;99.90;;;;;;4992563;28;20191;-77
2023/12/13 05:09:35;;;;;;;7.43;2.70;;;9.40;99.90;;;;;;4994018;28;20266;-77
2023/12/13 05:12:00;;;;;;;9.30;2.13;;;9.50;99.90;;;;;;4992399;28;20439;-78
2023/12/13 05:14:26;;;;;;;5.67;1.63;;;9.40;99.90;;;;;;4992858;28;20437;-78
2023/12/13 05:16:52;;;;;;;5.83;2.60;;;9.40;99.90;;;;;;4992883;28;20697;-78
2023/12/13 05:19:17;;;;;;;2.67;1.83;;;9.50;99.90;;;;;;4991103;28;20229;-78
2023/12/13 05:21:43;;;;;;;5.00;2.27;;;9.40;99.90;;;;;;4993012;28;20333;-77
2023/12/13 05:24:09;;;;;;;5.03;1.90;;;9.50;99.90;;;;;;4992583;28;20243;-78
2023/12/13 05:26:35;;;;;;;8.40;2.70;;;9.50;99.90;;;;;;4992734;28;20187;-77
2023/12/13 05:29:02;;;;;;;6.03;2.70;;;9.50;99.90;;;;;;4990883;28;20280;-78
2023/12/13 05:31:28;;;;;;;2.33;1.97;;;9.50;99.90;;;;;;4992751;28;20435;-77
2023/12/13 05:33:54;;;;;;;6.03;2.20;;;9.50;99.90;;;;;;4991377;28;20437;-77
2023/12/13 05:36:20;;;;;;;5.10;2.70;;;9.50;99.90;;;;;;4990859;28;20891;-78
2023/12/13 05:38:46;;;;;;;4.50;2.60;;;9.50;99.90;;;;;;4992767;28;20322;-77
2023/12/13 05:41:12;;;;;;;5.40;2.53;;;9.50;99.90;;;;;;4991137;28;20187;-79
2023/12/13 05:43:37;;;;;;;5.77;3.00;;;9.50;99.90;;;;;;4992794;28;20507;-77
2023/12/13 05:46:05;;;;;;;4.70;3.20;;;9.50;99.90;;;;;;4991106;28;20194;-76
2023/12/13 05:48:31;;;;;;;6.27;3.03;;;9.50;99.90;;;;;;4992137;28;20188;-79
2023/12/13 05:50:57;;;;;;;4.47;2.93;;;9.50;99.90;;;;;;4990841;28;20438;-77
2023/12/13 05:53:23;;;;;;;4.13;2.43;;;9.40;99.90;;;;;;4991417;28;20441;-77
2023/12/13 05:55:49;;;;;;;5.10;2.47;;;9.40;99.90;;;;;;4991825;28;20426;-78
2023/12/13 05:58:15;;;;;;;5.57;2.93;;;9.40;99.90;;;;;;4991967;28;20305;-78
2023/12/13 06:00:41;;;;;;;6.37;3.17;;;9.40;99.90;;;;;;4992689;28;20207;-77
2023/12/13 06:03:06;;;;;;;3.87;2.57;;;9.50;99.90;;;;;;4989404;28;20275;-77
2023/12/13 06:05:32;;;;;;;6.00;3.17;;;9.50;99.90;;;;;;4994316;28;20184;-77
2023/12/13 06:07:58;;;;;;;5.77;2.70;;;9.40;99.90;;;;;;4992221;28;20225;-77
2023/12/13 06:10:23;;;;;;;9.83;2.87;;;9.40;99.90;;;;;;4993472;28;20195;-77
2023/12/13 06:12:50;;;;;;;8.53;2.90;;;9.40;99.90;;;;;;4991736;28;20194;-78
2023/12/13 06:15:16;;;;;;;6.27;3.40;;;9.40;99.90;;;;;;4974706;28;20680;-77
2023/12/13 06:17:43;;;;;;;7.90;3.40;;;9.50;99.90;;;;;;4990983;28;20503;-78
2023/12/13 06:20:09;;;;;;;5.13;2.90;;;9.50;99.90;;;;;;4991617;28;20415;-77
2023/12/13 06:22:36;;;;;;;6.03;2.80;;;9.50;99.90;;;;;;4996768;28;21085;-77
2023/12/13 06:25:02;;;;;;;12.03;2.90;;;9.50;99.90;;;;;;4994025;28;20434;-77
2023/12/13 06:27:28;;;;;;;5.07;2.20;;;9.50;99.90;;;;;;5008849;28;20438;-77
2023/12/13 06:29:53;;;;;;;5.00;2.53;;;9.50;99.90;;;;;;4994793;28;20927;-76
2023/12/13 06:32:19;;;;;;;6.40;2.80;;;9.50;99.90;;;;;;4994125;28;20243;-77
2023/12/13 06:34:46;;;;;;;3.87;2.13;;;9.50;99.90;;;;;;4994892;28;20392;-77
2023/12/13 06:37:11;;;;;;;6.57;2.37;;;9.50;99.90;;;;;;4996707;28;20451;-78
2023/12/13 06:39:38;;;;;;;3.80;3.00;;;9.50;99.90;;;;;;4994889;28;20531;-77
2023/12/13 06:42:08;;;;;;;4.13;2.70;;;9.50;99.90;;;;;;4993940;28;20521;-77
2023/12/13 06:44:37;;;;;;;4.53;2.97;;;9.50;99.90;;;;;;4994470;28;20439;-78
2023/12/13 06:47:05;;;;;;;6.77;2.43;;;9.50;99.90;;;;;;4993549;28;20434;-79
2023/12/13 06:49:34;;;;;;;6.97;3.40;;;9.60;99.90;;;;;;4994865;28;20439;-79
2023/12/13 06:52:01;;;;;;;8.00;3.10;;;9.50;99.90;;;;;;4994762;28;20520;-80
2023/12/13 06:54:28;;;;;;;5.23;3.23;;;9.50;99.90;;;;;;4994516;28;20895;-79
2023/12/13 06:56:54;;;;;;;5.03;2.70;;;9.60;99.90;;;;;;4993680;28;21092;-77
2023/12/13 06:59:20;;;;;;;6.07;3.10;;;9.50;99.90;;;;;;4994388;28;20474;-77
2023/12/13 07:01:45;;;;;;;5.30;2.77;;;9.50;99.90;;;;;;4993322;28;20427;-77
2023/12/13 07:04:11;;;;;;;9.93;3.10;;;9.50;99.90;;;;;;4995775;28;20187;-79
2023/12/13 07:06:37;;;;;;;5.10;3.00;;;9.50;99.90;;;;;;4993365;28;20298;-78
2023/12/13 07:09:03;;;;;;;5.00;2.70;;;9.50;99.90;;;;;;4993280;28;20440;-77
2023/12/13 07:11:29;;;;;;;4.73;3.47;;;9.60;99.90;;;;;;4998262;28;20195;-77
2023/12/13 07:13:55;;;;;;;5.00;2.50;;;9.60;99.90;;;;;;4995946;28;20955;-78
2023/12/13 07:16:21;;;;;;;7.83;2.70;;;9.50;99.90;;;;;;4999001;28;20427;-78
2023/12/13 07:18:47;;;;;;;8.20;2.70;;;9.50;99.90;;;;;;4997910;28;20227;-77
2023/12/13 07:21:12;;;;;;;8.20;2.97;;;9.60;99.90;;;;;;4996788;28;20220;-78
2023/12/13 07:23:39;;;;;;;4.87;2.40;;;9.50;99.90;;;;;;4995583;28;20191;-77
2023/12/13 07:26:06;;;;;;;5.90;2.60;;;9.50;99.90;;;;;;4995602;28;20298;-78
2023/12/13 07:28:32;;;;;;;7.43;2.27;;;9.50;99.90;;;;;;4992263;28;20446;-74
2023/12/13 07:31:04;;;;;;;3.77;2.57;;;9.50;99.90;;;;;;4995059;28;20439;-74
2023/12/13 07:33:31;;;;;;;4.33;2.40;;;9.50;99.90;;;;;;4989758;28;20449;-74
2023/12/13 07:35:56;;;;;;;6.33;3.20;;;9.50;99.90;;;;;;4991247;28;20489;-74
2023/12/13 07:38:22;;;;;;;5.87;2.70;;;9.50;99.90;;;;;;4992074;28;20883;-74
2023/12/13 07:40:48;;;;;;;8.57;2.40;;;9.50;99.90;;;;;;4990905;28;20302;-74
2023/12/13 07:43:14;;;;;;;4.50;2.20;;;9.50;99.90;;;;;;4991862;28;20188;-74
2023/12/13 07:45:40;;;;;;;5.80;2.33;;;9.50;99.90;;;;;;4992727;28;20430;-74
2023/12/13 07:48:06;;;;;;;3.90;2.80;;;9.50;99.90;;;;;;4990573;28;20195;-74
2023/12/13 07:50:31;;;;;;;5.53;3.20;;;9.50;99.90;;;;;;4993107;28;20183;-73
2023/12/13 07:52:57;;;;;;;7.27;2.70;;;9.40;99.90;;;;;;4990923;28;20328;-74
2023/12/13 07:55:23;;;;;;;7.90;2.53;;;9.50;99.90;;;;;;4991330;28;20821;-74
2023/12/13 07:57:52;;;;;;;5.07;2.87;;;9.50;99.90;;;;;;4992036;28;20306;-74
2023/12/13 08:00:18;;;;;;;4.60;2.47;;;9.50;99.90;;;;;;4991930;28;20253;-74
2023/12/13 08:02:43;;;;;;;5.93;2.70;;;9.40;99.90;;;;;;4991256;28;20434;-74
2023/12/13 08:05:09;;;;;;;5.57;2.07;;;9.40;99.90;;;;;;4993846;28;20433;-74
2023/12/13 08:07:35;;;;;;;5.80;2.20;;;9.40;99.90;;;;;;4991819;28;20198;-74
2023/12/13 08:10:06;;;;;;;6.50;2.50;;;9.50;99.90;;;;;;4992062;28;20261;-74
2023/12/13 08:12:34;;;;;;;4.90;2.17;;;9.50;99.90;;;;;;5007482;28;21014;-74
2023/12/13 08:15:00;;;;;;;5.70;2.10;;;9.50;99.90;;;;;;4991339;28;20427;-74
2023/12/13 08:17:26;;;;;;;3.80;2.53;;;9.50;99.90;;;;;;4990606;28;21004;-74
2023/12/13 08:19:52;;;;;;;6.60;2.43;;;9.40;99.90;;;;;;4991998;28;20495;-74
2023/12/13 08:22:17;;;;;;;5.23;3.10;;;9.50;99.90;;;;;;4988242;28;20195;-74
2023/12/13 08:24:44;;;;;;;10.63;4.17;;;9.50;99.90;;;;;;4984096;28;20180;-74
2023/12/13 08:27:10;;;;;;;8.20;3.13;;;9.40;99.90;;;;;;4986729;28;20179;-74
2023/12/13 08:29:36;;;;;;;6.10;2.70;;;9.50;99.90;;;;;;4992199;28;20450;-74
2023/12/13 08:32:01;;;;;;;5.80;2.77;;;9.50;99.90;;;;;;4992497;28;20551;-74
2023/12/13 08:34:27;;;;;;;5.90;2.00;;;9.50;99.90;;;;;;4992835;28;20260;-73
2023/12/13 08:36:53;;;;;;;5.83;2.37;;;9.50;99.90;;;;;;4991841;28;20712;-74
2023/12/13 08:39:19;;;;;;;4.00;2.30;;;9.50;99.90;;;;;;4991887;28;20596;-74
2023/12/13 08:41:44;;;;;;;8.13;2.50;;;9.50;99.90;;;;;;4996215;28;20222;-74
2023/12/13 08:44:10;;;;;;;4.50;2.13;;;9.50;99.90;;;;;;4992589;28;20477;-74
2023/12/13 08:46:36;;;;;;;5.20;2.60;;;9.50;99.90;;;;;;4999058;28;20186;-74
2023/12/13 08:49:01;;;;;;;8.33;2.77;;;9.50;99.90;;;;;;4996495;28;20179;-74
2023/12/13 08:51:27;;;;;;;4.00;2.20;;;9.50;99.90;;;;;;4999807;28;20198;-74
2023/12/13 08:53:54;;;;;;;4.67;2.47;;;9.50;99.90;;;;;;4996365;28;20726;-74
2023/12/13 08:56:21;;;;;;;5.60;2.77;;;9.60;99.90;;;;;;4996779;28;20187;-74
2023/12/13 08:58:46;;;;;;;2.50;2.10;;;9.50;99.90;;;;;;4997658;28;20469;-74
2023/12/13 09:01:13;;;;;;;5.20;2.73;;;9.60;99.90;;;;;;4996474;28;20973;-74
2023/12/13 09:03:39;;;;;;;6.83;2.60;;;9.70;99.90;;;;;;5016990;28;20639;-74
2023/12/13 09:06:06;;;;;;;5.23;2.67;;;9.80;99.90;;;;;;4996260;28;20426;-74
2023/12/13 09:08:32;;;;;;;3.70;2.60;;;10.00;99.90;;;;;;4996747;28;20439;-74
2023/12/13 09:10:58;;;;;;;5.90;2.10;;;10.20;99.90;;;;;;4995329;28;20439;-74
2023/12/13 09:13:24;;;;;;;8.17;3.10;;;10.40;99.90;;;;;;4998765;28;20479;-74
2023/12/13 09:15:49;;;;;;;7.17;2.50;;;10.50;99.90;;;;;;4996356;28;21010;-74
2023/12/13 09:18:15;;;;;;;4.00;2.00;;;10.70;99.90;;;;;;4996844;28;20470;-74
2023/12/13 09:20:41;;;;;;;6.20;2.50;;;10.60;99.90;;;;;;4999706;28;20627;-74
2023/12/13 09:23:07;;;;;;;8.90;2.40;;;10.60;99.90;;;;;;4995619;28;20179;-74
2023/12/13 09:25:33;;;;;;;6.60;2.00;;;10.60;99.90;;;;;;4996157;28;20451;-74
2023/12/13 09:27:59;;;;;;;7.97;2.40;;;10.60;99.90;;;;;;4995784;28;20462;-74
2023/12/13 09:30:25;;;;;;;7.07;2.20;;;10.40;99.90;;;;;;5002356;28;20250;-74
2023/12/13 09:32:51;;;;;;;7.93;2.13;;;10.40;99.90;;;;;;4993598;28;21207;-73
2023/12/13 09:35:17;;;;;;;4.20;2.17;;;10.30;99.90;;;;;;4997085;28;20236;-73
2023/12/13 09:37:42;;;;;;;8.57;2.27;;;10.20;99.90;;;;;;4999806;28;20618;-73
2023/12/13 09:40:15;;;;;;;6.07;2.50;;;10.20;99.90;;;;;;4997949;28;20491;-73
2023/12/13 09:42:45;;;;;;;11.40;3.10;;;10.20;99.90;;;;;;4998963;28;20180;-74
2023/12/13 09:45:16;;;;;;;2.77;1.90;;;10.10;99.90;;;;;;4996276;28;20998;-74
2023/12/13 09:47:42;;;;;;;5.23;2.47;;;10.10;99.90;;;;;;4999030;28;20438;-74
2023/12/13 09:50:11;;;;;;;5.00;2.10;;;10.10;99.90;;;;;;4981172;28;20426;-74
2023/12/13 09:52:38;;;;;;;5.73;2.03;;;10.10;99.90;;;;;;4999560;28;21065;-73
2023/12/13 09:55:06;;;;;;;5.80;2.40;;;10.10;99.90;;;;;;4995505;28;20439;-73
2023/12/13 09:57:32;;;;;;;5.70;2.60;;;10.10;99.90;;;;;;5003353;28;20988;-74
2023/12/13 09:59:58;;;;;;;4.30;1.90;;;10.10;99.90;;;;;;5000463;28;20433;-73
2023/12/13 10:02:24;;;;;;;7.50;2.83;;;10.20;99.90;;;;;;5002651;28;21084;-74
2023/12/13 10:04:52;;;;;;;5.47;2.23;;;10.20;99.90;;;;;;4998906;28;20439;-73
2023/12/13 10:07:18;;;;;;;4.57;2.37;;;10.10;99.90;;;;;;5000914;28;20343;-74
2023/12/13 10:09:47;;;;;;;7.83;2.67;;;10.20;99.90;;;;;;4993489;28;21239;-73
2023/12/13 10:12:14;;;;;;;4.30;2.30;;;10.10;99.90;;;;;;4992527;28;20473;-74
2023/12/13 10:14:40;;;;;;;8.30;2.67;;;10.10;99.90;;;;;;4991925;28;21253;-73
2023/12/13 10:17:05;;;;;;;5.57;2.07;;;10.10;99.90;;;;;;4993748;28;20422;-74
2023/12/13 10:19:32;;;;;;;5.23;2.00;;;10.10;99.90;;;;;;4994552;28;20238;-74
2023/12/13 10:21:58;;;;;;;3.33;2.10;;;10.10;99.90;;;;;;4993498;28;20191;-74
2023/12/13 10:24:25;;;;;;;4.73;2.03;;;10.00;99.90;;;;;;4993487;28;20487;-73
2023/12/13 10:26:50;;;;;;;5.97;2.50;;;10.00;99.90;;;;;;4992999;28;20526;-73
2023/12/13 10:29:20;;;;;;;8.10;2.33;;;10.00;99.90;;;;;;4994341;28;20562;-74
2023/12/13 10:31:46;;;;;;;5.20;2.20;;;10.10;99.90;;;;;;4992713;28;20641;-74
2023/12/13 10:34:12;;;;;;;7.63;2.10;;;10.10;99.90;;;;;;4994097;28;20522;-74
2023/12/13 10:36:39;;;;;;;5.40;3.30;;;10.10;99.90;;;;;;4993290;28;20263;-73
2023/12/13 10:39:07;;;;;;;6.80;2.60;;;10.10;99.90;;;;;;4994154;28;20720;-74
2023/12/13 10:41:36;;;;;;;8.03;2.40;;;10.10;99.90;;;;;;4994095;28;20474;-73
2023/12/13 10:44:02;;;;;;;8.97;3.00;;;10.10;99.90;;;;;;4993413;28;20968;-74
2023/12/13 10:46:35;;;;;;;6.57;2.47;;;10.10;99.90;;;;;;4994650;28;20491;-74
2023/12/13 10:49:05;;;;;;;5.63;2.50;;;10.10;99.90;;;;;;5092806;27;21287;-73
2023/12/13 10:51:33;;;;;;;6.90;2.30;;;10.10;99.90;;;;;;4992023;28;20519;-74
2023/12/13 10:53:59;;;;;;;4.70;2.07;;;10.20;99.90;;;;;;4993727;28;20498;-74
2023/12/13 10:56:25;;;;;;;4.60;2.00;;;10.10;99.90;;;;;;4993490;28;20430;-74
2023/12/13 10:58:52;;;;;;;4.10;1.90;;;10.20;99.90;;;;;;4991754;28;20493;-74
2023/12/13 11:01:19;;;;;;;9.83;2.87;;;10.20;99.90;;;;;;4993666;28;20210;-73
2023/12/13 11:04:01;;;;;;;9.03;2.00;;;10.10;99.90;;;;;;4993022;28;20431;-73
2023/12/13 11:06:27;;;;;;;9.67;2.20;;;10.10;99.90;;;;;;4992782;28;20464;-73
2023/12/13 11:08:52;;;;;;;5.10;2.13;;;10.20;99.90;;;;;;4993153;28;20423;-73
2023/12/13 11:11:18;;;;;;;4.70;1.80;;;10.10;99.90;;;;;;4993361;28;20287;-74
2023/12/13 11:13:48;;;;;;;5.93;2.23;;;10.10;99.90;;;;;;4992864;28;20205;-73
2023/12/13 11:16:22;;;;;;;4.90;2.03;;;10.10;99.90;;;;;;4993147;28;20184;-73
2023/12/13 11:18:51;;;;;;;5.80;1.90;;;10.10;99.90;;;;;;4992852;28;20471;-73
2023/12/13 11:21:25;;;;;;;5.10;1.67;;;10.10;99.90;;;;;;4993320;28;20528;-73
2023/12/13 11:23:57;;;;;;;3.70;2.00;;;10.10;99.90;;;;;;4991997;28;21243;-73
2023/12/13 11:26:23;;;;;;;4.43;2.07;;;10.00;99.90;;;;;;4994005;28;21000;-73
2023/12/13 11:28:50;;;;;;;4.50;2.20;;;10.10;99.90;;;;;;4991518;28;20862;-73
2023/12/13 11:31:22;;;;;;;5.20;2.50;;;10.00;99.90;;;;;;4992582;28;20875;-73
2023/12/13 11:33:54;;;;;;;6.13;2.33;;;10.00;99.90;;;;;;4992522;28;20445;-73
2023/12/13 11:36:21;;;;;;;6.00;2.23;;;10.00;99.90;;;;;;4994399;28;20992;-74
2023/12/13 11:38:52;;;;;;;3.43;2.20;;;10.00;99.90;;;;;;4992671;28;20467;-73
2023/12/13 11:41:18;;;;;;;3.73;2.10;;;10.00;99.90;;;;;;4992885;28;20449;-74
2023/12/13 11:43:45;;;;;;;3.80;2.40;;;10.00;99.90;;;;;;4993422;28;20426;-73
2023/12/13 11:46:12;;;;;;;4.50;3.03;;;10.00;99.90;;;;;;5007472;28;20503;-73
2023/12/13 11:48:38;;;;;;;2.83;1.60;;;10.00;99.90;;;;;;4993344;28;20445;-74
2023/12/13 11:51:04;;;;;;;5.20;2.50;;;10.00;99.90;;;;;;4993209;28;20442;-73
2023/12/13 11:53:30;;;;;;;7.03;2.70;;;10.00;99.90;;;;;;4994198;28;20443;-73
2023/12/13 11:55:57;;;;;;;6.80;2.73;;;10.00;99.90;;;;;;4992847;28;20908;-73
2023/12/13 11:58:26;;;;;;;6.57;2.63;;;10.00;99.90;;;;;;4994336;28;20245;-73
2023/12/13 12:00:52;;;;;;;4.73;2.47;;;10.10;99.90;;;;;;4991975;28;20423;-74
2023/12/13 12:03:17;;;;;;;4.70;2.90;;;10.00;99.90;;;;;;4994667;28;20449;-73
2023/12/13 12:05:43;;;;;;;5.87;3.10;;;10.00;99.90;;;;;;4993535;28;20663;-73
2023/12/13 12:08:11;;;;;;;9.00;3.20;;;10.10;99.90;;;;;;4992652;28;20194;-73
2023/12/13 12:10:37;;;;;;;4.80;2.47;;;10.00;99.90;;;;;;4992936;28;20183;-74
2023/12/13 12:13:03;;;;;;;7.40;3.13;;;10.00;99.90;;;;;;4993291;28;20489;-73
2023/12/13 12:15:33;;;;;;;6.37;2.90;;;10.00;99.90;;;;;;4993858;28;20195;-73
2023/12/13 12:18:00;;;;;;;7.03;3.30;;;10.00;99.90;;;;;;4994965;28;20577;-73
2023/12/13 12:20:26;;;;;;;7.57;3.33;;;10.00;99.90;;;;;;4991996;28;20419;-73
2023/12/13 12:22:52;;;;;;;5.17;2.83;;;10.00;99.90;;;;;;4993292;28;20838;-73
2023/12/13 12:25:20;;;;;;;4.47;2.30;;;10.00;99.90;;;;;;4993181;28;20426;-73
2023/12/13 12:27:48;;;;;;;6.07;2.43;;;10.00;99.90;;;;;;4991834;28;20434;-73
2023/12/13 12:30:15;;;;;;;5.63;2.47;;;9.90;99.90;;;;;;4993225;28;20431;-73
2023/12/13 12:32:41;;;;;;;5.03;2.60;;;9.90;99.90;;;;;;4991681;28;20469;-73
2023/12/13 12:35:07;;;;;;;2.27;2.07;;;9.90;99.90;;;;;;4992009;28;20431;-73
2023/12/13 12:37:32;;;;;;;5.37;1.97;;;9.90;99.90;;;;;;4993437;28;20184;-73
2023/12/13 12:39:58;;;;;;;2.70;2.10;;;9.90;99.90;;;;;;4993675;28;20503;-73
2023/12/13 12:42:24;;;;;;;3.53;2.30;;;9.80;99.90;;;;;;4992086;28;20195;-74
2023/12/13 12:44:50;;;;;;;2.80;2.13;;;9.80;99.90;;;;;;4992898;28;20179;-73
2023/12/13 12:47:15;;;;;;;3.60;2.63;;;9.80;99.90;;;;;;4993223;28;20191;-73
2023/12/13 12:49:41;;;;;;;3.67;2.77;;;9.80;99.90;;;;;;4978036;28;20178;-74
2023/12/13 12:52:07;;;;;;;3.70;2.63;;;9.70;99.90;;;;;;4993382;28;20764;-73